createdAt,value
2018-09-18T00:02:21.644Z,16.84
2018-09-18T00:04:51.316Z,16.78
2018-09-18T00:07:20.980Z,16.76
2018-09-18T00:09:50.656Z,16.69
2018-09-18T00:12:20.330Z,16.67
2018-09-18T00:14:49.993Z,16.63
2018-09-18T00:17:19.681Z,16.55
2018-09-18T00:19:49.336Z,16.52
2018-09-18T00:22:19.076Z,16.54
2018-09-18T00:24:48.742Z,16.60
2018-09-18T00:27:18.396Z,16.59
2018-09-18T00:29:48.069Z,16.60
2018-09-18T00:32:17.935Z,16.58
2018-09-18T00:34:47.602Z,16.64
2018-09-18T00:37:17.344Z,16.60
2018-09-18T00:39:47.011Z,16.59
2018-09-18T00:42:16.655Z,16.57
2018-09-18T00:44:46.337Z,16.57
2018-09-18T00:47:15.976Z,16.58
2018-09-18T00:49:45.632Z,16.57
2018-09-18T00:52:15.338Z,16.53
2018-09-18T00:54:44.979Z,16.51
2018-09-18T00:57:14.681Z,16.54
2018-09-18T00:59:44.327Z,16.53
2018-09-18T01:02:14.008Z,16.56
2018-09-18T01:04:43.654Z,16.57
2018-09-18T01:07:13.331Z,16.54
2018-09-18T01:09:42.974Z,16.55
2018-09-18T01:12:12.657Z,16.53
2018-09-18T01:14:42.381Z,16.55
2018-09-18T01:17:12.011Z,16.56
2018-09-18T01:19:41.732Z,16.56
2018-09-18T01:22:11.368Z,16.52
2018-09-18T01:24:41.080Z,16.49
2018-09-18T01:27:10.735Z,16.45
2018-09-18T01:29:40.368Z,16.40
2018-09-18T01:32:10.052Z,16.36
2018-09-18T01:34:39.700Z,16.36
2018-09-18T01:37:09.343Z,16.39
2018-09-18T01:39:39.022Z,16.37
2018-09-18T01:42:08.680Z,16.35
2018-09-18T01:44:38.312Z,16.37
2018-09-18T01:47:07.992Z,16.36
2018-09-18T01:49:37.632Z,16.33
2018-09-18T01:52:07.324Z,16.32
2018-09-18T01:54:36.947Z,16.33
2018-09-18T01:57:07.589Z,16.37
2018-09-18T01:59:37.283Z,16.33
2018-09-18T02:02:06.964Z,16.28
2018-09-18T02:04:36.648Z,16.35
2018-09-18T02:07:06.331Z,16.36
2018-09-18T02:09:35.996Z,16.44
2018-09-18T02:12:05.649Z,16.45
2018-09-18T02:14:35.300Z,16.44
2018-09-18T02:17:04.964Z,16.40
2018-09-18T02:19:34.664Z,16.44
2018-09-18T02:22:04.327Z,16.44
2018-09-18T02:24:33.996Z,16.45
2018-09-18T02:27:03.677Z,16.42
2018-09-18T02:29:33.360Z,16.47
2018-09-18T02:32:03.004Z,16.41
2018-09-18T02:34:32.692Z,16.43
2018-09-18T02:37:02.360Z,16.43
2018-09-18T02:39:32.022Z,16.35
2018-09-18T02:42:01.699Z,16.34
2018-09-18T02:44:31.353Z,16.29
2018-09-18T02:47:01.100Z,16.23
2018-09-18T02:49:30.744Z,16.26
2018-09-18T02:52:00.368Z,16.20
2018-09-18T02:54:30.827Z,16.08
2018-09-18T02:57:00.485Z,16.07
2018-09-18T02:59:30.196Z,16.07
2018-09-18T03:01:59.847Z,16.02
2018-09-18T03:04:29.497Z,16.03
2018-09-18T03:06:59.248Z,15.96
2018-09-18T03:09:28.887Z,15.91
2018-09-18T03:11:58.519Z,15.88
2018-09-18T03:14:28.204Z,15.82
2018-09-18T03:16:57.864Z,15.74
2018-09-18T03:19:27.520Z,15.69
2018-09-18T03:21:57.197Z,15.66
2018-09-18T03:24:26.872Z,15.73
2018-09-18T03:26:56.543Z,15.83
2018-09-18T03:29:26.236Z,15.91
2018-09-18T03:31:55.922Z,16.05
2018-09-18T03:34:25.555Z,16.03
2018-09-18T03:36:55.251Z,16.12
2018-09-18T03:39:24.889Z,16.15
2018-09-18T03:41:54.540Z,16.20
2018-09-18T03:44:24.236Z,16.18
2018-09-18T03:46:53.988Z,16.04
2018-09-18T03:49:23.635Z,16.14
2018-09-18T03:51:53.321Z,16.11
2018-09-18T03:54:22.978Z,16.09
2018-09-18T03:56:52.901Z,16.10
2018-09-18T03:59:22.564Z,16.16
2018-09-18T04:01:52.296Z,16.19
2018-09-18T04:04:21.928Z,16.19
2018-09-18T04:06:51.594Z,16.12
2018-09-18T04:09:21.281Z,16.10
2018-09-18T04:11:50.940Z,16.05
2018-09-18T04:14:20.581Z,16.02
2018-09-18T04:16:50.276Z,16.07
2018-09-18T04:19:19.942Z,16.03
2018-09-18T04:21:49.619Z,15.97
2018-09-18T04:24:20.186Z,15.94
2018-09-18T04:26:49.852Z,15.91
2018-09-18T04:29:19.493Z,15.87
2018-09-18T04:31:49.152Z,15.86
2018-09-18T04:34:18.824Z,15.90
2018-09-18T04:36:48.472Z,15.84
2018-09-18T04:39:18.155Z,15.81
2018-09-18T04:41:47.807Z,15.77
2018-09-18T04:44:17.480Z,15.74
2018-09-18T04:46:47.132Z,15.84
2018-09-18T04:49:16.846Z,16.01
2018-09-18T04:51:46.522Z,15.96
2018-09-18T04:54:16.153Z,16.05
2018-09-18T04:56:45.794Z,15.97
2018-09-18T04:59:15.509Z,16.05
2018-09-18T05:01:45.244Z,16.02
2018-09-18T05:04:14.896Z,16.01
2018-09-18T05:06:44.616Z,15.99
2018-09-18T05:09:14.337Z,15.97
2018-09-18T05:11:44.268Z,15.92
2018-09-18T05:14:13.924Z,15.88
2018-09-18T05:16:43.540Z,15.89
2018-09-18T05:19:13.212Z,15.92
2018-09-18T05:21:42.876Z,15.96
2018-09-18T05:24:12.547Z,15.94
2018-09-18T05:26:42.194Z,15.90
2018-09-18T05:29:11.891Z,15.94
2018-09-18T05:31:41.524Z,15.92
2018-09-18T05:34:11.196Z,15.96
2018-09-18T05:36:40.880Z,15.98
2018-09-18T05:39:11.780Z,16.02
2018-09-18T05:41:41.435Z,16.05
2018-09-18T05:44:11.104Z,16.18
2018-09-18T05:46:40.780Z,16.28
2018-09-18T05:49:10.472Z,16.30
2018-09-18T05:51:40.113Z,16.38
2018-09-18T05:54:09.824Z,16.41
2018-09-18T05:56:39.465Z,16.42
2018-09-18T05:59:09.293Z,16.44
2018-09-18T06:01:38.922Z,16.47
2018-09-18T06:04:08.712Z,16.54
2018-09-18T06:06:38.363Z,16.61
2018-09-18T06:09:10.605Z,16.60
2018-09-18T06:11:40.265Z,16.72
2018-09-18T06:14:10.265Z,16.78
2018-09-18T06:16:39.904Z,16.83
2018-09-18T06:19:09.699Z,16.93
2018-09-18T06:21:39.332Z,16.95
2018-09-18T06:24:09.191Z,17.10
2018-09-18T06:26:38.865Z,17.14
2018-09-18T06:29:08.512Z,17.24
2018-09-18T06:31:38.176Z,17.37
2018-09-18T06:34:07.839Z,17.40
2018-09-18T06:36:37.531Z,17.56
2018-09-18T06:39:09.353Z,17.73
2018-09-18T06:41:39.222Z,17.90
2018-09-18T06:44:08.905Z,18.05
2018-09-18T06:46:38.588Z,18.22
2018-09-18T06:49:08.280Z,18.38
2018-09-18T06:51:37.956Z,18.49
2018-09-18T06:54:07.792Z,18.59
2018-09-18T06:56:37.492Z,18.79
2018-09-18T06:59:07.164Z,18.88
2018-09-18T07:01:36.832Z,19.00
2018-09-18T07:04:06.536Z,19.04
2018-09-18T07:06:36.231Z,19.15
2018-09-18T07:09:07.614Z,19.20
2018-09-18T07:11:37.286Z,19.32
2018-09-18T07:14:07.092Z,19.37
2018-09-18T07:16:36.816Z,19.42
2018-09-18T07:19:06.733Z,19.53
2018-09-18T07:21:36.712Z,19.65
2018-09-18T07:24:06.384Z,19.75
2018-09-18T07:26:36.055Z,19.88
2018-09-18T07:29:05.712Z,20.01
2018-09-18T07:31:35.403Z,20.09
2018-09-18T07:34:05.080Z,20.18
2018-09-18T07:36:34.748Z,20.27
2018-09-18T07:39:05.952Z,20.45
2018-09-18T07:41:35.620Z,20.59
2018-09-18T07:44:05.316Z,20.72
2018-09-18T07:46:34.968Z,20.81
2018-09-18T07:49:05.601Z,20.87
2018-09-18T07:51:35.872Z,20.95
2018-09-18T07:54:05.625Z,21.09
2018-09-18T07:56:35.268Z,21.10
2018-09-18T07:59:04.928Z,21.20
2018-09-18T08:01:34.685Z,21.15
2018-09-18T08:04:04.341Z,21.27
2018-09-18T08:06:34.164Z,21.44
2018-09-18T08:09:04.265Z,21.64
2018-09-18T08:11:33.924Z,21.74
2018-09-18T08:14:03.657Z,21.95
2018-09-18T08:16:33.352Z,22.13
2018-09-18T08:19:03.116Z,22.34
2018-09-18T08:21:32.741Z,22.50
2018-09-18T08:24:02.448Z,22.58
2018-09-18T08:26:32.156Z,22.77
2018-09-18T08:29:02.417Z,22.93
2018-09-18T08:31:32.127Z,22.82
2018-09-18T08:34:01.927Z,22.99
2018-09-18T08:36:31.700Z,23.12
2018-09-18T08:39:01.393Z,23.22
2018-09-18T08:41:31.040Z,23.38
2018-09-18T08:44:00.934Z,23.34
2018-09-18T08:46:30.582Z,23.48
2018-09-18T08:49:00.362Z,23.53
2018-09-18T08:51:30.204Z,23.58
2018-09-18T08:53:59.898Z,23.74
2018-09-18T08:56:29.618Z,23.96
2018-09-18T08:58:59.349Z,23.97
2018-09-18T09:01:29.010Z,24.12
2018-09-18T09:03:58.762Z,24.23
2018-09-18T09:06:28.885Z,24.25
2018-09-18T09:08:58.615Z,24.38
2018-09-18T09:11:28.552Z,24.47
2018-09-18T09:13:58.250Z,24.73
2018-09-18T09:16:27.918Z,24.86
2018-09-18T09:18:57.600Z,24.97
2018-09-18T09:21:27.391Z,25.16
2018-09-18T09:23:56.980Z,25.30
2018-09-18T09:26:26.657Z,25.27
2018-09-18T09:28:56.324Z,25.47
2018-09-18T09:31:26.036Z,25.64
2018-09-18T09:33:55.734Z,25.79
2018-09-18T09:36:25.434Z,25.85
2018-09-18T09:38:55.142Z,26.05
2018-09-18T09:41:24.821Z,26.20
2018-09-18T09:43:54.492Z,26.45
2018-09-18T09:46:24.170Z,26.40
2018-09-18T09:48:53.872Z,26.52
2018-09-18T09:51:23.556Z,26.69
2018-09-18T09:53:53.236Z,26.82
2018-09-18T09:56:22.880Z,26.85
2018-09-18T09:58:52.552Z,26.79
2018-09-18T10:01:27.310Z,26.89
2018-09-18T10:03:57.279Z,26.98
2018-09-18T10:06:27.403Z,27.24
2018-09-18T10:08:57.100Z,27.30
2018-09-18T10:11:26.752Z,27.20
2018-09-18T10:13:59.417Z,27.34
2018-09-18T10:16:29.112Z,27.28
2018-09-18T10:18:58.773Z,27.56
2018-09-18T10:21:28.445Z,27.63
2018-09-18T10:23:58.107Z,27.84
2018-09-18T10:26:27.944Z,27.90
2018-09-18T10:28:57.675Z,28.01
2018-09-18T10:31:27.367Z,28.06
2018-09-18T10:33:57.079Z,28.16
2018-09-18T10:36:26.735Z,28.16
2018-09-18T10:38:56.438Z,28.16
2018-09-18T10:41:26.683Z,28.38
2018-09-18T10:43:56.591Z,28.52
2018-09-18T10:46:26.281Z,28.60
2018-09-18T10:48:58.041Z,28.62
2018-09-18T10:51:27.696Z,28.69
2018-09-18T10:53:57.347Z,28.72
2018-09-18T10:56:27.028Z,28.92
2018-09-18T10:58:56.652Z,28.90
2018-09-18T11:01:26.293Z,28.99
2018-09-18T11:03:56.012Z,29.21
2018-09-18T11:06:25.636Z,29.34
2018-09-18T11:08:55.339Z,29.32
2018-09-18T11:11:25.072Z,29.41
2018-09-18T11:13:55.042Z,29.65
2018-09-18T11:16:24.728Z,29.81
2018-09-18T11:18:54.430Z,29.96
2018-09-18T11:21:24.110Z,29.95
2018-09-18T11:23:53.756Z,30.00
2018-09-18T11:26:23.436Z,29.96
2018-09-18T11:28:53.137Z,29.98
2018-09-18T11:31:22.896Z,29.93
2018-09-18T11:33:52.466Z,30.17
2018-09-18T11:36:22.136Z,30.29
2018-09-18T11:38:51.815Z,30.48
2018-09-18T11:41:21.496Z,30.31
2018-09-18T11:43:51.139Z,30.40
2018-09-18T11:46:20.814Z,30.38
2018-09-18T11:48:50.520Z,30.49
2018-09-18T11:51:20.597Z,30.55
2018-09-18T11:53:50.241Z,30.68
2018-09-18T11:56:19.928Z,30.84
2018-09-18T11:58:49.564Z,30.98
2018-09-18T12:01:19.260Z,31.06
2018-09-18T12:03:48.901Z,31.19
2018-09-18T12:06:18.528Z,31.36
2018-09-18T12:08:48.247Z,31.53
2018-09-18T12:11:18.293Z,31.76
2018-09-18T12:13:48.180Z,31.88
2018-09-18T12:16:17.812Z,32.01
2018-09-18T12:18:47.452Z,31.98
2018-09-18T12:21:17.150Z,32.02
2018-09-18T12:23:46.864Z,31.99
2018-09-18T12:26:16.502Z,31.85
2018-09-18T12:28:46.263Z,31.68
2018-09-18T12:31:15.904Z,31.93
2018-09-18T12:33:45.536Z,32.08
2018-09-18T12:36:15.292Z,32.02
2018-09-18T12:38:44.929Z,31.91
2018-09-18T12:41:14.574Z,31.89
2018-09-18T12:43:44.260Z,32.02
2018-09-18T12:46:13.945Z,32.04
2018-09-18T12:48:43.645Z,32.23
2018-09-18T12:51:13.400Z,32.29
2018-09-18T12:53:43.072Z,32.26
2018-09-18T12:56:12.886Z,32.45
2018-09-18T12:58:42.420Z,32.44
2018-09-18T13:01:12.060Z,32.44
2018-09-18T13:03:41.729Z,32.50
2018-09-18T13:06:11.467Z,32.54
2018-09-18T13:08:41.107Z,32.48
2018-09-18T13:11:10.793Z,32.57
2018-09-18T13:13:40.517Z,32.38
2018-09-18T13:16:10.183Z,32.50
2018-09-18T13:18:39.917Z,32.58
2018-09-18T13:21:09.603Z,32.66
2018-09-18T13:23:39.263Z,32.82
2018-09-18T13:26:09.161Z,32.96
2018-09-18T13:28:38.838Z,32.77
2018-09-18T13:31:08.528Z,32.97
2018-09-18T13:33:38.169Z,32.66
2018-09-18T13:36:07.862Z,32.68
2018-09-18T13:38:37.512Z,32.58
2018-09-18T13:41:07.225Z,32.63
2018-09-18T13:43:36.862Z,32.74
2018-09-18T13:46:06.600Z,32.88
2018-09-18T13:48:36.273Z,32.82
2018-09-18T13:51:05.956Z,32.69
2018-09-18T13:53:35.668Z,32.85
2018-09-18T13:56:05.379Z,32.95
2018-09-18T13:58:35.064Z,33.00
2018-09-18T14:01:04.766Z,33.12
2018-09-18T14:03:34.457Z,33.17
2018-09-18T14:06:04.088Z,32.98
2018-09-18T14:08:33.765Z,33.00
2018-09-18T14:11:03.423Z,33.06
2018-09-18T14:13:33.120Z,33.13
2018-09-18T14:16:02.757Z,33.01
2018-09-18T14:18:32.404Z,32.91
2018-09-18T14:21:02.177Z,32.80
2018-09-18T14:23:31.810Z,32.67
2018-09-18T14:26:01.513Z,32.59
2018-09-18T14:28:31.136Z,32.40
2018-09-18T14:31:00.788Z,32.15
2018-09-18T14:33:30.441Z,32.05
2018-09-18T14:36:00.056Z,31.96
2018-09-18T14:38:29.738Z,31.87
2018-09-18T14:40:59.468Z,31.81
2018-09-18T14:43:29.162Z,31.70
2018-09-18T14:45:58.800Z,31.61
2018-09-18T14:48:28.476Z,31.62
2018-09-18T14:50:58.231Z,31.53
2018-09-18T14:53:27.921Z,31.45
2018-09-18T14:55:57.558Z,31.47
2018-09-18T14:58:27.256Z,31.39
2018-09-18T15:00:56.892Z,31.39
2018-09-18T15:03:26.588Z,31.45
2018-09-18T15:05:56.232Z,31.26
2018-09-18T15:08:25.891Z,31.22
2018-09-18T15:10:55.547Z,31.16
2018-09-18T15:13:25.177Z,31.28
2018-09-18T15:15:54.895Z,31.16
2018-09-18T15:18:24.536Z,31.08
2018-09-18T15:20:54.221Z,31.00
2018-09-18T15:23:23.864Z,30.94
2018-09-18T15:25:53.548Z,30.90
2018-09-18T15:28:23.201Z,30.87
2018-09-18T15:30:52.868Z,30.83
2018-09-18T15:33:22.542Z,30.83
2018-09-18T15:35:52.180Z,30.81
2018-09-18T15:38:21.883Z,30.69
2018-09-18T15:40:51.532Z,30.78
2018-09-18T15:43:21.196Z,30.76
2018-09-18T15:45:50.919Z,30.75
2018-09-18T15:48:20.633Z,30.62
2018-09-18T15:50:50.245Z,30.67
2018-09-18T15:53:19.943Z,30.56
2018-09-18T15:55:49.609Z,30.51
2018-09-18T15:58:19.334Z,30.48
2018-09-18T16:00:48.986Z,30.37
2018-09-18T16:03:18.689Z,30.33
2018-09-18T16:05:48.348Z,30.27
2018-09-18T16:08:18.024Z,30.23
2018-09-18T16:10:47.672Z,30.23
2018-09-18T16:13:17.336Z,30.31
2018-09-18T16:15:47.031Z,30.18
2018-09-18T16:18:16.667Z,30.15
2018-09-18T16:20:46.329Z,30.06
2018-09-18T16:23:16.046Z,29.97
2018-09-18T16:25:45.701Z,29.91
2018-09-18T16:28:15.412Z,29.88
2018-09-18T16:30:45.109Z,29.83
2018-09-18T16:33:14.728Z,29.78
2018-09-18T16:35:44.421Z,29.66
2018-09-18T16:38:14.056Z,29.60
2018-09-18T16:40:43.764Z,29.48
2018-09-18T16:43:13.446Z,29.54
2018-09-18T16:45:43.144Z,29.39
2018-09-18T16:48:12.788Z,29.31
2018-09-18T16:50:42.450Z,29.18
2018-09-18T16:53:12.117Z,29.16
2018-09-18T16:55:41.794Z,29.05
2018-09-18T16:58:11.476Z,29.01
2018-09-18T17:00:41.186Z,28.93
2018-09-18T17:03:10.882Z,28.80
2018-09-18T17:05:40.580Z,28.79
2018-09-18T17:08:10.292Z,28.73
2018-09-18T17:10:39.951Z,28.65
2018-09-18T17:13:09.645Z,28.53
2018-09-18T17:15:39.322Z,28.47
2018-09-18T17:18:09.008Z,28.33
2018-09-18T17:20:38.652Z,28.29
2018-09-18T17:23:08.325Z,28.13
2018-09-18T17:25:37.981Z,28.13
2018-09-18T17:28:07.688Z,28.12
2018-09-18T17:30:37.412Z,28.03
2018-09-18T17:33:07.100Z,27.90
2018-09-18T17:35:36.768Z,27.89
2018-09-18T17:38:06.652Z,27.73
2018-09-18T17:40:36.358Z,27.69
2018-09-18T17:43:06.053Z,27.54
2018-09-18T17:45:35.688Z,27.55
2018-09-18T17:48:05.385Z,27.46
2018-09-18T17:50:35.081Z,27.37
2018-09-18T17:53:04.815Z,27.21
2018-09-18T17:55:34.489Z,27.17
2018-09-18T17:58:04.564Z,27.14
2018-09-18T18:00:34.242Z,27.06
2018-09-18T18:03:03.906Z,27.00
2018-09-18T18:05:33.611Z,26.85
2018-09-18T18:08:03.321Z,26.80
2018-09-18T18:10:33.015Z,26.71
2018-09-18T18:13:02.651Z,26.67
2018-09-18T18:15:32.319Z,26.55
2018-09-18T18:18:02.661Z,26.51
2018-09-18T18:20:32.568Z,26.48
2018-09-18T18:23:02.233Z,26.44
2018-09-18T18:25:31.878Z,26.43
2018-09-18T18:28:01.524Z,26.48
2018-09-18T18:30:31.240Z,26.50
2018-09-18T18:33:00.916Z,26.41
2018-09-18T18:35:30.647Z,26.40
2018-09-18T18:38:00.280Z,26.31
2018-09-18T18:40:29.923Z,26.22
2018-09-18T18:42:59.622Z,26.14
2018-09-18T18:45:29.269Z,26.07
2018-09-18T18:47:59.045Z,26.02
2018-09-18T18:50:28.631Z,25.90
2018-09-18T18:52:58.288Z,25.82
2018-09-18T18:55:27.982Z,25.70
2018-09-18T18:57:57.619Z,25.66
2018-09-18T19:00:27.517Z,25.70
2018-09-18T19:02:57.135Z,25.66
2018-09-18T19:05:26.791Z,25.59
2018-09-18T19:07:56.484Z,25.50
2018-09-18T19:10:26.187Z,25.45
2018-09-18T19:12:55.859Z,25.35
2018-09-18T19:15:25.516Z,25.29
2018-09-18T19:17:55.295Z,25.30
2018-09-18T19:20:24.986Z,25.23
2018-09-18T19:22:54.678Z,25.18
2018-09-18T19:25:24.368Z,25.09
2018-09-18T19:27:54.088Z,24.99
2018-09-18T19:30:23.776Z,24.98
2018-09-18T19:32:53.436Z,24.90
2018-09-18T19:35:23.144Z,24.84
2018-09-18T19:37:52.818Z,24.76
2018-09-18T19:40:22.545Z,24.72
2018-09-18T19:42:52.213Z,24.66
2018-09-18T19:45:21.868Z,24.58
2018-09-18T19:47:51.585Z,24.47
2018-09-18T19:50:21.289Z,24.40
2018-09-18T19:52:51.220Z,24.31
2018-09-18T19:55:20.927Z,24.24
2018-09-18T19:57:50.587Z,24.11
2018-09-18T20:00:20.252Z,24.06
2018-09-18T20:02:49.908Z,23.95
2018-09-18T20:05:19.568Z,23.89
2018-09-18T20:07:49.256Z,23.76
2018-09-18T20:10:18.895Z,23.85
2018-09-18T20:12:48.609Z,23.74
2018-09-18T20:15:18.274Z,23.72
2018-09-18T20:17:47.922Z,23.64
2018-09-18T20:20:17.612Z,23.62
2018-09-18T20:22:47.297Z,23.65
2018-09-18T20:25:16.974Z,23.55
2018-09-18T20:27:46.628Z,23.53
2018-09-18T20:30:16.324Z,23.52
2018-09-18T20:32:45.971Z,23.51
2018-09-18T20:35:15.626Z,23.48
2018-09-18T20:37:45.284Z,23.48
2018-09-18T20:40:14.981Z,23.43
2018-09-18T20:42:44.645Z,23.34
2018-09-18T20:45:14.336Z,23.25
2018-09-18T20:47:43.976Z,23.14
2018-09-18T20:50:13.712Z,23.10
2018-09-18T20:52:43.385Z,23.05
2018-09-18T20:55:13.063Z,23.06
2018-09-18T20:57:42.740Z,23.14
2018-09-18T21:00:12.417Z,23.18
2018-09-18T21:02:42.112Z,23.25
2018-09-18T21:05:11.804Z,23.31
2018-09-18T21:07:41.470Z,23.35
2018-09-18T21:10:11.252Z,23.36
2018-09-18T21:12:40.950Z,23.39
2018-09-18T21:15:10.600Z,23.41
2018-09-18T21:17:40.269Z,23.38
2018-09-18T21:20:09.980Z,23.40
2018-09-18T21:22:39.633Z,23.40
2018-09-18T21:25:33.421Z,23.34
2018-09-18T21:28:03.089Z,23.32
2018-09-18T21:30:32.820Z,23.26
2018-09-18T21:33:02.500Z,23.26
2018-09-18T21:35:32.128Z,23.26
2018-09-18T21:38:01.781Z,23.28
2018-09-18T21:40:31.472Z,23.28
2018-09-18T21:43:01.116Z,23.30
2018-09-18T21:45:30.817Z,23.20
2018-09-18T21:48:00.472Z,23.07
2018-09-18T21:50:32.531Z,23.02
2018-09-18T21:53:02.187Z,23.00
2018-09-18T21:55:31.824Z,22.90
2018-09-18T21:58:01.945Z,22.87
2018-09-18T22:00:31.665Z,22.90
2018-09-18T22:03:02.155Z,22.86
2018-09-18T22:05:32.122Z,22.78
2018-09-18T22:08:02.594Z,22.78
2018-09-18T22:10:32.248Z,22.76
2018-09-18T22:13:02.536Z,22.73
2018-09-18T22:15:32.840Z,22.66
2018-09-18T22:18:02.548Z,22.58
2018-09-18T22:20:32.199Z,22.52
2018-09-18T22:23:01.867Z,22.46
2018-09-18T22:25:31.539Z,22.44
2018-09-18T22:28:01.197Z,22.39
2018-09-18T22:30:30.919Z,22.32
2018-09-18T22:33:00.565Z,22.23
2018-09-18T22:35:30.246Z,22.13
2018-09-18T22:37:59.895Z,22.08
2018-09-18T22:40:29.561Z,22.09
2018-09-18T22:42:59.272Z,22.06
2018-09-18T22:45:28.968Z,22.00
2018-09-18T22:47:58.654Z,22.01
2018-09-18T22:50:28.307Z,22.00
2018-09-18T22:52:57.979Z,21.89
2018-09-18T22:55:27.641Z,21.84
2018-09-18T22:57:57.333Z,21.85
2018-09-18T23:00:27.004Z,21.80
2018-09-18T23:02:56.672Z,21.72
2018-09-18T23:05:26.364Z,21.72
2018-09-18T23:07:56.025Z,21.75
2018-09-18T23:10:25.715Z,21.87
2018-09-18T23:12:55.378Z,21.86
2018-09-18T23:15:25.084Z,21.82
2018-09-18T23:17:54.745Z,21.78
2018-09-18T23:20:24.424Z,21.74
2018-09-18T23:22:54.119Z,21.76
2018-09-18T23:25:23.814Z,21.71
2018-09-18T23:27:53.484Z,21.66
2018-09-18T23:30:23.221Z,21.56
2018-09-18T23:32:52.913Z,21.48
2018-09-18T23:35:22.666Z,21.46
2018-09-18T23:37:52.320Z,21.36
2018-09-18T23:40:21.988Z,21.30
2018-09-18T23:42:51.696Z,21.22
2018-09-18T23:45:21.353Z,21.14
2018-09-18T23:47:51.056Z,21.09
2018-09-18T23:50:20.737Z,21.05
2018-09-18T23:52:50.455Z,21.00
2018-09-18T23:55:20.134Z,20.91
2018-09-18T23:57:49.802Z,20.77
